Cornelius, North Carolina
Current Conditions -  °F | °C
As of 8:55 PM on Friday 31 Oct 2014 (Local Time) from KJQF Reporting Station
Thunderstorm Thunderstorm  
Wind Chill: 54°   Ceiling: 3800
Heat Index: 54°   Visibility: 4mi
Dew Point: 45°   Wind: 15mph
Humidity: 72%   Direction: 310°NW
Pressure: 29.84"   Gusts: 23mph
Location:  35.49°N, 80.86°W
Report Text: KJQF 010055Z 31013G20KT 4SM TSRA BR SCT018 BKN038 OVC048 12/07 A2984 RMK TSB50
Loading
Personal Weather Stations






























Interactive Weather Map
Tropical Storm Tracking
New forecast layout! Learn more

10-Day Weather Forecast

Advertisements
Track Severe Weather on mobile